sensor_id;sensor_type;location;lat;lon;timestamp;temperature;humidity
73360;DHT22;63092;43.582;19.528;2024-02-28T00:02:24;13.00;99.90
73360;DHT22;63092;43.582;19.528;2024-02-28T00:04:50;12.90;99.90
73360;DHT22;63092;43.582;19.528;2024-02-28T00:07:16;13.00;99.90
73360;DHT22;63092;43.582;19.528;2024-02-28T00:09:43;13.00;99.90
73360;DHT22;63092;43.582;19.528;2024-02-28T00:12:08;13.00;99.90
73360;DHT22;63092;43.582;19.528;2024-02-28T00:14:35;12.90;99.90
73360;DHT22;63092;43.582;19.528;2024-02-28T00:17:01;12.90;99.90
73360;DHT22;63092;43.582;19.528;2024-02-28T00:19:26;12.90;99.90
73360;DHT22;63092;43.582;19.528;2024-02-28T00:21:52;13.00;99.90
73360;DHT22;63092;43.582;19.528;2024-02-28T00:24:18;12.90;99.90
73360;DHT22;63092;43.582;19.528;2024-02-28T00:26:44;12.80;99.90
73360;DHT22;63092;43.582;19.528;2024-02-28T00:29:10;12.80;99.90
73360;DHT22;63092;43.582;19.528;2024-02-28T00:31:36;12.80;99.90
73360;DHT22;63092;43.582;19.528;2024-02-28T00:34:01;12.80;99.90
73360;DHT22;63092;43.582;19.528;2024-02-28T00:36:27;12.80;99.90
73360;DHT22;63092;43.582;19.528;2024-02-28T00:38:53;12.70;99.30
73360;DHT22;63092;43.582;19.528;2024-02-28T00:41:19;12.80;99.40
73360;DHT22;63092;43.582;19.528;2024-02-28T00:43:44;12.80;99.50
73360;DHT22;63092;43.582;19.528;2024-02-28T00:46:10;12.80;99.40
73360;DHT22;63092;43.582;19.528;2024-02-28T00:48:40;12.80;99.60
73360;DHT22;63092;43.582;19.528;2024-02-28T00:51:06;12.80;99.70
73360;DHT22;63092;43.582;19.528;2024-02-28T00:53:33;12.80;99.70
73360;DHT22;63092;43.582;19.528;2024-02-28T00:55:59;12.80;99.80
73360;DHT22;63092;43.582;19.528;2024-02-28T00:58:25;12.80;99.80
73360;DHT22;63092;43.582;19.528;2024-02-28T01:00:53;12.80;99.80
73360;DHT22;63092;43.582;19.528;2024-02-28T01:03:19;12.80;99.90
73360;DHT22;63092;43.582;19.528;2024-02-28T01:05:45;12.70;99.90
73360;DHT22;63092;43.582;19.528;2024-02-28T01:08:11;12.80;99.90
73360;DHT22;63092;43.582;19.528;2024-02-28T01:10:37;12.70;99.90
73360;DHT22;63092;43.582;19.528;2024-02-28T01:13:03;12.70;99.90
73360;DHT22;63092;43.582;19.528;2024-02-28T01:15:29;12.70;99.90
73360;DHT22;63092;43.582;19.528;2024-02-28T01:17:55;12.70;99.90
73360;DHT22;63092;43.582;19.528;2024-02-28T01:20:21;12.60;99.90
73360;DHT22;63092;43.582;19.528;2024-02-28T01:22:46;12.60;99.90
73360;DHT22;63092;43.582;19.528;2024-02-28T01:25:13;12.60;99.90
73360;DHT22;63092;43.582;19.528;2024-02-28T01:27:38;12.60;99.90
73360;DHT22;63092;43.582;19.528;2024-02-28T01:30:05;12.60;99.90
73360;DHT22;63092;43.582;19.528;2024-02-28T01:32:31;12.60;99.90
73360;DHT22;63092;43.582;19.528;2024-02-28T01:34:57;12.50;99.90
73360;DHT22;63092;43.582;19.528;2024-02-28T01:37:22;12.50;99.90
73360;DHT22;63092;43.582;19.528;2024-02-28T01:39:48;12.50;99.90
73360;DHT22;63092;43.582;19.528;2024-02-28T01:42:14;12.50;99.90
73360;DHT22;63092;43.582;19.528;2024-02-28T01:44:46;12.40;99.90
73360;DHT22;63092;43.582;19.528;2024-02-28T01:47:12;12.30;99.90
73360;DHT22;63092;43.582;19.528;2024-02-28T01:49:41;12.40;99.90
73360;DHT22;63092;43.582;19.528;2024-02-28T01:52:07;12.30;99.90
73360;DHT22;63092;43.582;19.528;2024-02-28T01:54:34;12.30;99.90
73360;DHT22;63092;43.582;19.528;2024-02-28T01:57:01;12.10;99.90
73360;DHT22;63092;43.582;19.528;2024-02-28T01:59:27;11.90;99.90
73360;DHT22;63092;43.582;19.528;2024-02-28T02:01:54;11.90;99.90
73360;DHT22;63092;43.582;19.528;2024-02-28T02:04:20;11.80;99.90
73360;DHT22;63092;43.582;19.528;2024-02-28T02:06:48;11.70;99.90
73360;DHT22;63092;43.582;19.528;2024-02-28T02:09:16;11.60;99.90
73360;DHT22;63092;43.582;19.528;2024-02-28T02:11:42;11.60;99.90
73360;DHT22;63092;43.582;19.528;2024-02-28T02:14:08;11.40;99.90
73360;DHT22;63092;43.582;19.528;2024-02-28T02:16:33;11.30;99.90
73360;DHT22;63092;43.582;19.528;2024-02-28T02:18:59;11.10;99.90
73360;DHT22;63092;43.582;19.528;2024-02-28T02:21:30;11.00;99.90
73360;DHT22;63092;43.582;19.528;2024-02-28T02:23:56;10.90;99.90
73360;DHT22;63092;43.582;19.528;2024-02-28T02:26:22;10.80;99.90
73360;DHT22;63092;43.582;19.528;2024-02-28T02:28:47;10.80;99.90
73360;DHT22;63092;43.582;19.528;2024-02-28T02:31:14;10.70;99.90
73360;DHT22;63092;43.582;19.528;2024-02-28T02:33:40;10.70;99.90
73360;DHT22;63092;43.582;19.528;2024-02-28T02:36:05;10.80;99.90
73360;DHT22;63092;43.582;19.528;2024-02-28T02:38:31;10.80;99.90
73360;DHT22;63092;43.582;19.528;2024-02-28T02:40:57;10.80;99.90
73360;DHT22;63092;43.582;19.528;2024-02-28T02:43:23;10.90;99.90
73360;DHT22;63092;43.582;19.528;2024-02-28T02:45:48;11.00;99.90
73360;DHT22;63092;43.582;19.528;2024-02-28T02:48:14;11.10;99.90
73360;DHT22;63092;43.582;19.528;2024-02-28T02:50:40;11.20;99.90
73360;DHT22;63092;43.582;19.528;2024-02-28T02:53:09;11.20;99.90
73360;DHT22;63092;43.582;19.528;2024-02-28T02:55:34;11.20;99.90
73360;DHT22;63092;43.582;19.528;2024-02-28T02:58:00;11.20;99.90
73360;DHT22;63092;43.582;19.528;2024-02-28T03:00:26;11.20;99.90
73360;DHT22;63092;43.582;19.528;2024-02-28T03:02:52;11.20;99.90
73360;DHT22;63092;43.582;19.528;2024-02-28T03:05:17;11.30;99.90
73360;DHT22;63092;43.582;19.528;2024-02-28T03:07:43;11.10;99.90
73360;DHT22;63092;43.582;19.528;2024-02-28T03:10:09;11.00;99.90
73360;DHT22;63092;43.582;19.528;2024-02-28T03:12:36;11.00;99.90
73360;DHT22;63092;43.582;19.528;2024-02-28T03:15:02;11.00;99.90
73360;DHT22;63092;43.582;19.528;2024-02-28T03:17:28;11.10;99.90
73360;DHT22;63092;43.582;19.528;2024-02-28T03:19:54;11.10;99.90
73360;DHT22;63092;43.582;19.528;2024-02-28T03:22:20;11.10;99.90
73360;DHT22;63092;43.582;19.528;2024-02-28T03:24:46;11.20;99.90
73360;DHT22;63092;43.582;19.528;2024-02-28T03:27:12;11.20;99.90
73360;DHT22;63092;43.582;19.528;2024-02-28T03:29:37;11.20;99.90
73360;DHT22;63092;43.582;19.528;2024-02-28T03:32:03;11.10;99.90
73360;DHT22;63092;43.582;19.528;2024-02-28T03:34:30;11.00;99.90
73360;DHT22;63092;43.582;19.528;2024-02-28T03:36:55;11.00;99.90
73360;DHT22;63092;43.582;19.528;2024-02-28T03:39:21;11.00;99.90
73360;DHT22;63092;43.582;19.528;2024-02-28T03:41:47;11.00;99.90
73360;DHT22;63092;43.582;19.528;2024-02-28T03:44:13;11.10;99.90
73360;DHT22;63092;43.582;19.528;2024-02-28T03:46:38;11.00;99.90
73360;DHT22;63092;43.582;19.528;2024-02-28T03:49:04;11.00;99.90
73360;DHT22;63092;43.582;19.528;2024-02-28T03:51:30;11.00;99.90
73360;DHT22;63092;43.582;19.528;2024-02-28T03:53:56;11.00;99.90
73360;DHT22;63092;43.582;19.528;2024-02-28T03:56:25;11.00;99.90
73360;DHT22;63092;43.582;19.528;2024-02-28T03:58:52;11.00;99.90
73360;DHT22;63092;43.582;19.528;2024-02-28T04:01:17;11.00;99.90
73360;DHT22;63092;43.582;19.528;2024-02-28T04:03:43;10.90;99.90
73360;DHT22;63092;43.582;19.528;2024-02-28T04:06:09;10.90;99.90
73360;DHT22;63092;43.582;19.528;2024-02-28T04:08:35;11.00;99.90
73360;DHT22;63092;43.582;19.528;2024-02-28T04:11:01;10.90;99.90
73360;DHT22;63092;43.582;19.528;2024-02-28T04:13:27;11.00;99.90
73360;DHT22;63092;43.582;19.528;2024-02-28T04:15:52;11.00;99.90
73360;DHT22;63092;43.582;19.528;2024-02-28T04:18:18;11.00;99.90
73360;DHT22;63092;43.582;19.528;2024-02-28T04:20:44;11.00;99.90
73360;DHT22;63092;43.582;19.528;2024-02-28T04:23:09;11.10;99.90
73360;DHT22;63092;43.582;19.528;2024-02-28T04:25:35;11.10;99.90
73360;DHT22;63092;43.582;19.528;2024-02-28T04:28:02;11.10;99.90
73360;DHT22;63092;43.582;19.528;2024-02-28T04:30:28;11.10;99.90
73360;DHT22;63092;43.582;19.528;2024-02-28T04:32:54;11.10;99.90
73360;DHT22;63092;43.582;19.528;2024-02-28T04:35:20;11.10;99.90
73360;DHT22;63092;43.582;19.528;2024-02-28T04:37:48;11.10;99.90
73360;DHT22;63092;43.582;19.528;2024-02-28T04:40:14;11.10;99.90
73360;DHT22;63092;43.582;19.528;2024-02-28T04:42:41;11.10;99.90
73360;DHT22;63092;43.582;19.528;2024-02-28T04:45:09;11.00;99.90
73360;DHT22;63092;43.582;19.528;2024-02-28T04:47:35;11.00;99.90
73360;DHT22;63092;43.582;19.528;2024-02-28T04:50:02;10.90;99.90
73360;DHT22;63092;43.582;19.528;2024-02-28T04:52:30;10.80;99.90
73360;DHT22;63092;43.582;19.528;2024-02-28T04:54:56;10.80;99.90
73360;DHT22;63092;43.582;19.528;2024-02-28T04:57:22;10.60;99.90
73360;DHT22;63092;43.582;19.528;2024-02-28T04:59:48;10.60;99.90
73360;DHT22;63092;43.582;19.528;2024-02-28T05:02:13;10.70;99.90
73360;DHT22;63092;43.582;19.528;2024-02-28T05:04:39;10.70;99.90
73360;DHT22;63092;43.582;19.528;2024-02-28T05:07:05;10.80;99.90
73360;DHT22;63092;43.582;19.528;2024-02-28T05:09:33;10.80;99.90
73360;DHT22;63092;43.582;19.528;2024-02-28T05:11:59;10.80;99.90
73360;DHT22;63092;43.582;19.528;2024-02-28T05:14:25;10.80;99.90
73360;DHT22;63092;43.582;19.528;2024-02-28T05:16:50;10.80;99.90
73360;DHT22;63092;43.582;19.528;2024-02-28T05:19:16;10.80;99.90
73360;DHT22;63092;43.582;19.528;2024-02-28T05:21:44;10.90;99.90
73360;DHT22;63092;43.582;19.528;2024-02-28T05:24:10;10.90;99.90
73360;DHT22;63092;43.582;19.528;2024-02-28T05:26:36;10.80;99.90
73360;DHT22;63092;43.582;19.528;2024-02-28T05:29:03;10.80;99.90
73360;DHT22;63092;43.582;19.528;2024-02-28T05:31:29;10.80;99.90
73360;DHT22;63092;43.582;19.528;2024-02-28T05:33:56;10.90;99.90
73360;DHT22;63092;43.582;19.528;2024-02-28T05:36:23;10.90;99.90
73360;DHT22;63092;43.582;19.528;2024-02-28T05:38:50;10.90;99.90
73360;DHT22;63092;43.582;19.528;2024-02-28T05:41:19;10.90;99.90
73360;DHT22;63092;43.582;19.528;2024-02-28T05:43:44;10.90;99.90
73360;DHT22;63092;43.582;19.528;2024-02-28T05:46:11;10.90;99.90
73360;DHT22;63092;43.582;19.528;2024-02-28T05:48:37;10.90;99.90
73360;DHT22;63092;43.582;19.528;2024-02-28T05:51:03;11.00;99.90
73360;DHT22;63092;43.582;19.528;2024-02-28T05:53:30;11.00;99.90
73360;DHT22;63092;43.582;19.528;2024-02-28T05:56:02;10.90;99.90
73360;DHT22;63092;43.582;19.528;2024-02-28T05:58:28;10.90;99.90
73360;DHT22;63092;43.582;19.528;2024-02-28T06:00:54;10.80;99.90
73360;DHT22;63092;43.582;19.528;2024-02-28T06:03:20;10.70;99.90
73360;DHT22;63092;43.582;19.528;2024-02-28T06:05:46;10.60;99.90
73360;DHT22;63092;43.582;19.528;2024-02-28T06:08:13;10.50;99.90
73360;DHT22;63092;43.582;19.528;2024-02-28T06:10:38;10.70;99.90
73360;DHT22;63092;43.582;19.528;2024-02-28T06:13:04;10.70;99.90
73360;DHT22;63092;43.582;19.528;2024-02-28T06:15:30;10.60;99.90
73360;DHT22;63092;43.582;19.528;2024-02-28T06:17:57;10.60;99.90
73360;DHT22;63092;43.582;19.528;2024-02-28T06:20:24;10.60;99.90
73360;DHT22;63092;43.582;19.528;2024-02-28T06:22:50;10.70;99.90
73360;DHT22;63092;43.582;19.528;2024-02-28T06:25:16;10.80;99.90
73360;DHT22;63092;43.582;19.528;2024-02-28T06:27:47;10.90;99.90
73360;DHT22;63092;43.582;19.528;2024-02-28T06:30:13;10.90;99.90
73360;DHT22;63092;43.582;19.528;2024-02-28T06:32:39;10.90;99.90
73360;DHT22;63092;43.582;19.528;2024-02-28T06:35:06;11.00;99.90
73360;DHT22;63092;43.582;19.528;2024-02-28T06:37:33;10.90;99.90
73360;DHT22;63092;43.582;19.528;2024-02-28T06:39:58;11.00;99.90
73360;DHT22;63092;43.582;19.528;2024-02-28T06:42:24;10.90;99.90
73360;DHT22;63092;43.582;19.528;2024-02-28T06:44:50;11.00;99.90
73360;DHT22;63092;43.582;19.528;2024-02-28T06:47:16;11.00;99.90
73360;DHT22;63092;43.582;19.528;2024-02-28T06:49:43;11.00;99.90
73360;DHT22;63092;43.582;19.528;2024-02-28T06:52:09;10.90;99.90
73360;DHT22;63092;43.582;19.528;2024-02-28T06:54:35;10.70;99.90
73360;DHT22;63092;43.582;19.528;2024-02-28T06:57:01;10.80;99.90
73360;DHT22;63092;43.582;19.528;2024-02-28T06:59:28;10.80;99.90
73360;DHT22;63092;43.582;19.528;2024-02-28T07:01:54;10.80;99.90
73360;DHT22;63092;43.582;19.528;2024-02-28T07:04:19;10.80;99.90
73360;DHT22;63092;43.582;19.528;2024-02-28T07:06:45;10.90;99.90
73360;DHT22;63092;43.582;19.528;2024-02-28T07:09:11;11.00;99.90
73360;DHT22;63092;43.582;19.528;2024-02-28T07:11:38;11.00;99.90
73360;DHT22;63092;43.582;19.528;2024-02-28T07:14:04;10.90;99.90
73360;DHT22;63092;43.582;19.528;2024-02-28T07:16:31;10.80;99.90
73360;DHT22;63092;43.582;19.528;2024-02-28T07:19:00;10.70;99.90
73360;DHT22;63092;43.582;19.528;2024-02-28T07:21:25;10.80;99.90
73360;DHT22;63092;43.582;19.528;2024-02-28T07:23:51;10.80;99.90
73360;DHT22;63092;43.582;19.528;2024-02-28T07:26:17;10.90;99.90
73360;DHT22;63092;43.582;19.528;2024-02-28T07:28:43;10.90;99.90
73360;DHT22;63092;43.582;19.528;2024-02-28T07:31:18;10.90;99.90
73360;DHT22;63092;43.582;19.528;2024-02-28T07:33:45;11.00;99.90
73360;DHT22;63092;43.582;19.528;2024-02-28T07:36:11;11.00;99.90
73360;DHT22;63092;43.582;19.528;2024-02-28T07:38:37;11.10;99.90
73360;DHT22;63092;43.582;19.528;2024-02-28T07:41:03;11.30;99.90
73360;DHT22;63092;43.582;19.528;2024-02-28T07:43:29;11.40;99.90
73360;DHT22;63092;43.582;19.528;2024-02-28T07:45:58;11.50;99.90
73360;DHT22;63092;43.582;19.528;2024-02-28T07:48:24;11.50;99.90
73360;DHT22;63092;43.582;19.528;2024-02-28T07:50:50;11.70;99.90
73360;DHT22;63092;43.582;19.528;2024-02-28T07:53:17;11.80;99.90
73360;DHT22;63092;43.582;19.528;2024-02-28T07:55:43;11.90;99.90
73360;DHT22;63092;43.582;19.528;2024-02-28T07:58:08;12.00;99.90
73360;DHT22;63092;43.582;19.528;2024-02-28T08:00:35;12.00;99.90
73360;DHT22;63092;43.582;19.528;2024-02-28T08:03:01;12.00;99.90
73360;DHT22;63092;43.582;19.528;2024-02-28T08:05:27;12.00;99.90
73360;DHT22;63092;43.582;19.528;2024-02-28T08:07:53;12.00;99.90
73360;DHT22;63092;43.582;19.528;2024-02-28T08:10:19;12.10;99.90
73360;DHT22;63092;43.582;19.528;2024-02-28T08:12:45;12.30;99.90
73360;DHT22;63092;43.582;19.528;2024-02-28T08:15:11;12.20;99.90
73360;DHT22;63092;43.582;19.528;2024-02-28T08:17:37;12.30;99.90
73360;DHT22;63092;43.582;19.528;2024-02-28T08:20:04;12.40;99.90
73360;DHT22;63092;43.582;19.528;2024-02-28T08:22:33;12.40;99.90
73360;DHT22;63092;43.582;19.528;2024-02-28T08:24:59;12.60;99.90
73360;DHT22;63092;43.582;19.528;2024-02-28T08:27:25;12.60;99.90
73360;DHT22;63092;43.582;19.528;2024-02-28T08:29:51;12.70;99.90
73360;DHT22;63092;43.582;19.528;2024-02-28T08:32:17;12.80;99.90
73360;DHT22;63092;43.582;19.528;2024-02-28T08:34:44;12.90;99.90
73360;DHT22;63092;43.582;19.528;2024-02-28T08:37:12;13.00;99.90
73360;DHT22;63092;43.582;19.528;2024-02-28T08:39:39;13.10;99.90
73360;DHT22;63092;43.582;19.528;2024-02-28T08:42:05;13.20;99.90
73360;DHT22;63092;43.582;19.528;2024-02-28T08:44:31;13.30;99.90
73360;DHT22;63092;43.582;19.528;2024-02-28T08:46:57;13.50;99.90
73360;DHT22;63092;43.582;19.528;2024-02-28T08:49:23;13.60;99.30
73360;DHT22;63092;43.582;19.528;2024-02-28T08:51:48;13.70;98.70
73360;DHT22;63092;43.582;19.528;2024-02-28T08:54:14;13.80;97.80
73360;DHT22;63092;43.582;19.528;2024-02-28T08:56:40;13.90;97.70
73360;DHT22;63092;43.582;19.528;2024-02-28T08:59:06;14.00;97.30
73360;DHT22;63092;43.582;19.528;2024-02-28T09:01:31;14.10;96.80
73360;DHT22;63092;43.582;19.528;2024-02-28T09:03:59;14.20;96.30
73360;DHT22;63092;43.582;19.528;2024-02-28T09:06:25;14.30;96.00
73360;DHT22;63092;43.582;19.528;2024-02-28T09:08:51;14.40;95.80
73360;DHT22;63092;43.582;19.528;2024-02-28T09:11:16;14.60;95.60
73360;DHT22;63092;43.582;19.528;2024-02-28T09:13:42;14.90;96.70
73360;DHT22;63092;43.582;19.528;2024-02-28T09:16:08;15.00;97.20
73360;DHT22;63092;43.582;19.528;2024-02-28T09:18:34;15.20;97.90
73360;DHT22;63092;43.582;19.528;2024-02-28T09:20:59;15.30;98.80
73360;DHT22;63092;43.582;19.528;2024-02-28T09:23:25;15.30;93.10
73360;DHT22;63092;43.582;19.528;2024-02-28T09:25:51;15.40;92.60
73360;DHT22;63092;43.582;19.528;2024-02-28T09:28:16;15.60;92.40
73360;DHT22;63092;43.582;19.528;2024-02-28T09:30:42;15.60;91.80
73360;DHT22;63092;43.582;19.528;2024-02-28T09:33:09;15.70;91.80
73360;DHT22;63092;43.582;19.528;2024-02-28T09:35:35;15.90;91.30
73360;DHT22;63092;43.582;19.528;2024-02-28T09:38:02;15.90;90.90
73360;DHT22;63092;43.582;19.528;2024-02-28T09:40:28;16.10;90.60
73360;DHT22;63092;43.582;19.528;2024-02-28T09:43:00;16.10;89.70
73360;DHT22;63092;43.582;19.528;2024-02-28T09:45:27;16.40;93.00
73360;DHT22;63092;43.582;19.528;2024-02-28T09:47:56;16.50;92.50
73360;DHT22;63092;43.582;19.528;2024-02-28T09:50:22;16.60;94.00
73360;DHT22;63092;43.582;19.528;2024-02-28T09:52:48;16.70;93.60
73360;DHT22;63092;43.582;19.528;2024-02-28T09:55:14;16.80;88.80
73360;DHT22;63092;43.582;19.528;2024-02-28T09:57:41;16.90;92.60
73360;DHT22;63092;43.582;19.528;2024-02-28T10:07:30;17.10;82.00
73360;DHT22;63092;43.582;19.528;2024-02-28T10:09:56;17.20;82.10
73360;DHT22;63092;43.582;19.528;2024-02-28T10:12:22;17.20;82.40
73360;DHT22;63092;43.582;19.528;2024-02-28T10:14:50;17.40;82.70
73360;DHT22;63092;43.582;19.528;2024-02-28T10:17:16;17.60;82.20
73360;DHT22;63092;43.582;19.528;2024-02-28T10:19:42;17.70;81.00
73360;DHT22;63092;43.582;19.528;2024-02-28T10:22:08;17.70;80.60
73360;DHT22;63092;43.582;19.528;2024-02-28T10:24:34;17.80;79.60
73360;DHT22;63092;43.582;19.528;2024-02-28T10:27:01;17.80;79.40
73360;DHT22;63092;43.582;19.528;2024-02-28T10:29:27;17.90;79.20
73360;DHT22;63092;43.582;19.528;2024-02-28T10:34:23;18.10;77.40
73360;DHT22;63092;43.582;19.528;2024-02-28T10:36:49;18.20;78.70
73360;DHT22;63092;43.582;19.528;2024-02-28T10:39:15;18.30;77.30
73360;DHT22;63092;43.582;19.528;2024-02-28T10:41:42;18.40;75.90
73360;DHT22;63092;43.582;19.528;2024-02-28T10:44:09;18.50;75.90
73360;DHT22;63092;43.582;19.528;2024-02-28T10:46:37;18.40;74.30
73360;DHT22;63092;43.582;19.528;2024-02-28T10:49:06;18.50;75.00
73360;DHT22;63092;43.582;19.528;2024-02-28T10:51:35;18.60;72.90
73360;DHT22;63092;43.582;19.528;2024-02-28T10:54:09;18.80;73.00
73360;DHT22;63092;43.582;19.528;2024-02-28T10:56:40;18.90;73.40
73360;DHT22;63092;43.582;19.528;2024-02-28T10:59:07;18.90;71.40
73360;DHT22;63092;43.582;19.528;2024-02-28T11:01:35;19.10;71.30
73360;DHT22;63092;43.582;19.528;2024-02-28T11:04:03;19.20;68.60
73360;DHT22;63092;43.582;19.528;2024-02-28T11:06:28;19.30;69.60
73360;DHT22;63092;43.582;19.528;2024-02-28T11:08:55;19.30;69.30
73360;DHT22;63092;43.582;19.528;2024-02-28T11:11:22;19.40;69.20
73360;DHT22;63092;43.582;19.528;2024-02-28T11:13:56;19.40;68.20
73360;DHT22;63092;43.582;19.528;2024-02-28T11:16:31;19.50;68.40
73360;DHT22;63092;43.582;19.528;2024-02-28T11:18:58;19.60;67.00
73360;DHT22;63092;43.582;19.528;2024-02-28T11:21:28;19.70;67.00
73360;DHT22;63092;43.582;19.528;2024-02-28T11:24:00;19.80;65.80
73360;DHT22;63092;43.582;19.528;2024-02-28T11:26:27;19.90;66.40
73360;DHT22;63092;43.582;19.528;2024-02-28T11:28:56;19.90;65.90
73360;DHT22;63092;43.582;19.528;2024-02-28T11:31:22;20.20;65.00
73360;DHT22;63092;43.582;19.528;2024-02-28T11:33:48;20.20;65.90
73360;DHT22;63092;43.582;19.528;2024-02-28T11:36:14;20.40;65.50
73360;DHT22;63092;43.582;19.528;2024-02-28T11:38:40;20.40;66.20
73360;DHT22;63092;43.582;19.528;2024-02-28T11:41:07;20.40;65.80
73360;DHT22;63092;43.582;19.528;2024-02-28T11:43:33;20.40;65.40
73360;DHT22;63092;43.582;19.528;2024-02-28T11:46:07;20.40;65.90
73360;DHT22;63092;43.582;19.528;2024-02-28T11:48:33;20.40;66.40
73360;DHT22;63092;43.582;19.528;2024-02-28T11:50:59;20.40;65.70
73360;DHT22;63092;43.582;19.528;2024-02-28T11:53:25;20.30;65.90
73360;DHT22;63092;43.582;19.528;2024-02-28T11:55:54;20.20;65.80
73360;DHT22;63092;43.582;19.528;2024-02-28T11:58:22;20.20;66.40
73360;DHT22;63092;43.582;19.528;2024-02-28T12:00:48;20.20;66.90
73360;DHT22;63092;43.582;19.528;2024-02-28T12:03:14;20.10;66.70
73360;DHT22;63092;43.582;19.528;2024-02-28T12:05:43;20.10;67.20
73360;DHT22;63092;43.582;19.528;2024-02-28T12:08:10;20.00;65.90
73360;DHT22;63092;43.582;19.528;2024-02-28T12:10:36;20.10;66.30
73360;DHT22;63092;43.582;19.528;2024-02-28T12:13:02;20.20;66.50
73360;DHT22;63092;43.582;19.528;2024-02-28T12:15:31;20.20;66.00
73360;DHT22;63092;43.582;19.528;2024-02-28T12:17:57;20.30;65.70
73360;DHT22;63092;43.582;19.528;2024-02-28T12:20:26;20.30;65.60
73360;DHT22;63092;43.582;19.528;2024-02-28T12:22:52;20.50;65.40
73360;DHT22;63092;43.582;19.528;2024-02-28T12:25:17;20.60;65.10
73360;DHT22;63092;43.582;19.528;2024-02-28T12:27:43;20.50;64.80
73360;DHT22;63092;43.582;19.528;2024-02-28T12:30:09;20.50;64.60
73360;DHT22;63092;43.582;19.528;2024-02-28T12:32:35;20.50;63.30
73360;DHT22;63092;43.582;19.528;2024-02-28T12:35:01;20.50;63.80
73360;DHT22;63092;43.582;19.528;2024-02-28T12:37:27;20.50;64.30
73360;DHT22;63092;43.582;19.528;2024-02-28T12:39:53;20.50;64.20
73360;DHT22;63092;43.582;19.528;2024-02-28T12:42:19;20.50;63.80
73360;DHT22;63092;43.582;19.528;2024-02-28T12:44:45;20.50;64.30
73360;DHT22;63092;43.582;19.528;2024-02-28T12:47:12;20.50;63.80
73360;DHT22;63092;43.582;19.528;2024-02-28T12:49:38;20.60;64.10
73360;DHT22;63092;43.582;19.528;2024-02-28T12:52:04;20.60;64.20
73360;DHT22;63092;43.582;19.528;2024-02-28T12:54:30;20.70;64.50
73360;DHT22;63092;43.582;19.528;2024-02-28T12:56:56;20.70;64.30
73360;DHT22;63092;43.582;19.528;2024-02-28T12:59:22;20.80;64.30
73360;DHT22;63092;43.582;19.528;2024-02-28T13:01:47;20.80;62.70
73360;DHT22;63092;43.582;19.528;2024-02-28T13:04:13;20.80;63.60
73360;DHT22;63092;43.582;19.528;2024-02-28T13:06:39;20.80;63.70
73360;DHT22;63092;43.582;19.528;2024-02-28T13:09:05;20.80;63.80
73360;DHT22;63092;43.582;19.528;2024-02-28T13:11:37;20.80;63.40
73360;DHT22;63092;43.582;19.528;2024-02-28T13:14:03;20.80;63.70
73360;DHT22;63092;43.582;19.528;2024-02-28T13:16:30;20.80;63.20
73360;DHT22;63092;43.582;19.528;2024-02-28T13:18:56;20.80;63.70
73360;DHT22;63092;43.582;19.528;2024-02-28T13:21:21;20.80;63.70
73360;DHT22;63092;43.582;19.528;2024-02-28T13:23:49;20.80;63.10
73360;DHT22;63092;43.582;19.528;2024-02-28T13:26:15;20.80;63.90
73360;DHT22;63092;43.582;19.528;2024-02-28T13:28:46;20.80;63.00
73360;DHT22;63092;43.582;19.528;2024-02-28T13:31:13;20.60;61.90
73360;DHT22;63092;43.582;19.528;2024-02-28T13:33:39;20.60;62.50
73360;DHT22;63092;43.582;19.528;2024-02-28T13:36:07;20.60;62.20
73360;DHT22;63092;43.582;19.528;2024-02-28T13:38:33;20.60;62.20
73360;DHT22;63092;43.582;19.528;2024-02-28T13:40:58;20.60;62.80
73360;DHT22;63092;43.582;19.528;2024-02-28T13:43:25;20.70;63.10
73360;DHT22;63092;43.582;19.528;2024-02-28T13:45:51;20.70;63.30
73360;DHT22;63092;43.582;19.528;2024-02-28T13:48:21;20.80;63.90
73360;DHT22;63092;43.582;19.528;2024-02-28T13:50:49;20.80;63.40
73360;DHT22;63092;43.582;19.528;2024-02-28T13:53:16;20.80;63.90
73360;DHT22;63092;43.582;19.528;2024-02-28T13:55:45;20.80;63.60
73360;DHT22;63092;43.582;19.528;2024-02-28T13:58:13;20.80;64.30
73360;DHT22;63092;43.582;19.528;2024-02-28T14:00:40;20.80;65.10
73360;DHT22;63092;43.582;19.528;2024-02-28T14:03:07;20.70;65.30
73360;DHT22;63092;43.582;19.528;2024-02-28T14:05:33;20.70;65.20
73360;DHT22;63092;43.582;19.528;2024-02-28T14:07:59;20.70;65.80
73360;DHT22;63092;43.582;19.528;2024-02-28T14:10:26;20.70;65.60
73360;DHT22;63092;43.582;19.528;2024-02-28T14:12:52;20.60;65.20
73360;DHT22;63092;43.582;19.528;2024-02-28T14:15:19;20.60;66.20
73360;DHT22;63092;43.582;19.528;2024-02-28T14:17:45;20.60;66.20
73360;DHT22;63092;43.582;19.528;2024-02-28T14:20:11;20.60;66.30
73360;DHT22;63092;43.582;19.528;2024-02-28T14:22:38;20.60;67.40
73360;DHT22;63092;43.582;19.528;2024-02-28T14:25:16;20.50;67.10
73360;DHT22;63092;43.582;19.528;2024-02-28T14:27:44;20.50;66.80
73360;DHT22;63092;43.582;19.528;2024-02-28T14:30:10;20.20;66.10
73360;DHT22;63092;43.582;19.528;2024-02-28T14:32:38;20.10;66.20
73360;DHT22;63092;43.582;19.528;2024-02-28T14:35:05;20.00;66.60
73360;DHT22;63092;43.582;19.528;2024-02-28T14:37:32;19.90;66.40
73360;DHT22;63092;43.582;19.528;2024-02-28T14:39:59;19.90;66.80
73360;DHT22;63092;43.582;19.528;2024-02-28T14:42:26;19.90;67.10
73360;DHT22;63092;43.582;19.528;2024-02-28T14:44:53;19.90;67.20
73360;DHT22;63092;43.582;19.528;2024-02-28T14:47:19;19.90;67.30
73360;DHT22;63092;43.582;19.528;2024-02-28T14:49:46;19.90;67.60
73360;DHT22;63092;43.582;19.528;2024-02-28T14:52:12;19.80;67.80
73360;DHT22;63092;43.582;19.528;2024-02-28T14:54:39;19.80;68.20
73360;DHT22;63092;43.582;19.528;2024-02-28T14:57:06;19.70;68.20
73360;DHT22;63092;43.582;19.528;2024-02-28T14:59:32;19.60;68.50
73360;DHT22;63092;43.582;19.528;2024-02-28T15:01:59;19.60;68.60
73360;DHT22;63092;43.582;19.528;2024-02-28T15:04:25;19.60;68.70
73360;DHT22;63092;43.582;19.528;2024-02-28T15:06:51;19.60;68.80
73360;DHT22;63092;43.582;19.528;2024-02-28T15:09:19;19.60;68.80
73360;DHT22;63092;43.582;19.528;2024-02-28T15:11:50;19.50;69.00
73360;DHT22;63092;43.582;19.528;2024-02-28T15:14:16;19.40;69.30
73360;DHT22;63092;43.582;19.528;2024-02-28T15:16:42;19.40;69.60
73360;DHT22;63092;43.582;19.528;2024-02-28T15:19:08;19.30;69.50
73360;DHT22;63092;43.582;19.528;2024-02-28T15:21:34;19.30;70.10